Time;durP1;ratioP1;P1;durP2;ratioP2;P2;SDS_P1;SDS_P2;PMS_P1;PMS_P2;Temp;Humidity;BMP_temperature;BMP_pressure;BME280_temperature;BME280_humidity;BME280_pressure;Samples;Min_cycle;Max_cycle;Signal;HPM_P1;HPM_P2
2022/08/04 00:01:45;;;;;;;3.15;1.70;;;;;;;24.97;38.05;95521.06;4960229;28;20204;-80
2022/08/04 00:04:42;;;;;;;2.03;1.83;;;;;;;24.92;38.01;95518.34;4979473;28;20306;-80
2022/08/04 00:07:13;;;;;;;1.88;1.60;;;;;;;24.89;38.26;95519.59;4974785;28;20664;-79
2022/08/04 00:09:45;;;;;;;3.40;2.05;;;;;;;24.90;38.05;95520.41;4962356;28;20184;-81
2022/08/04 00:12:11;;;;;;;2.22;1.58;;;;;;;24.94;38.01;95517.06;4981217;28;20184;-80
2022/08/04 00:14:43;;;;;;;2.03;1.70;;;;;;;24.95;38.19;95515.19;4953707;28;20201;-79
2022/08/04 00:17:08;;;;;;;3.15;1.90;;;;;;;24.93;37.90;95514.66;4971273;28;20200;-80
2022/08/04 00:19:44;;;;;;;2.83;1.83;;;;;;;24.93;37.79;95514.66;4969304;28;20186;-80
2022/08/04 00:22:11;;;;;;;2.25;1.80;;;;;;;24.95;37.99;95508.03;4981371;28;20191;-80
2022/08/04 00:24:36;;;;;;;2.00;1.80;;;;;;;24.94;37.75;95509.09;4955479;28;20219;-80
2022/08/04 00:27:02;;;;;;;2.85;1.65;;;;;;;24.93;38.04;95510.13;4973273;28;20192;-80
2022/08/04 00:29:28;;;;;;;2.60;1.92;;;;;;;24.91;38.28;95506.88;4971602;28;20266;-79
2022/08/04 00:31:55;;;;;;;3.42;1.55;;;;;;;24.88;38.16;95504.72;4972424;28;20683;-81
2022/08/04 00:34:23;;;;;;;2.80;2.08;;;;;;;24.88;38.19;95511.88;4976624;28;20238;-80
2022/08/04 00:36:48;;;;;;;1.80;1.70;;;;;;;24.85;38.16;95506.00;4955352;28;20270;-81
2022/08/04 00:39:15;;;;;;;1.98;1.83;;;;;;;24.85;38.67;95508.66;4988570;28;20187;-79
2022/08/04 00:41:59;;;;;;;2.20;1.88;;;;;;;24.79;38.63;95506.13;4969454;28;20185;-79
2022/08/04 00:44:44;;;;;;;2.55;1.70;;;;;;;24.82;38.40;95508.31;4970055;28;20236;-80
2022/08/04 00:47:21;;;;;;;3.45;1.70;;;;;;;24.78;38.79;95508.00;4973525;28;20260;-81
2022/08/04 00:50:02;;;;;;;1.70;1.60;;;;;;;24.90;38.35;95510.59;4988251;28;20191;-79
2022/08/04 00:52:35;;;;;;;3.25;1.75;;;;;;;24.80;38.94;95499.78;4980296;28;20225;-79
2022/08/04 00:55:26;;;;;;;1.92;1.77;;;;;;;24.83;38.64;95501.97;4969265;28;20176;-79
2022/08/04 00:58:19;;;;;;;4.15;1.90;;;;;;;24.75;39.04;95502.38;4971709;28;20341;-80
2022/08/04 01:00:58;;;;;;;2.65;1.70;;;;;;;24.71;39.45;95502.00;4978023;28;20242;-80
2022/08/04 01:03:36;;;;;;;2.35;1.77;;;;;;;24.72;39.07;95497.50;4967568;28;20211;-79
2022/08/04 01:06:26;;;;;;;3.03;1.90;;;;;;;24.66;39.64;95503.78;4974115;28;20187;-80
2022/08/04 01:09:01;;;;;;;2.30;2.10;;;;;;;24.65;39.37;95502.16;4977363;28;20282;-80
2022/08/04 01:11:57;;;;;;;3.08;1.90;;;;;;;24.62;39.50;95503.44;4971727;28;20894;-80
2022/08/04 01:14:53;;;;;;;2.65;1.55;;;;;;;24.58;39.68;95503.09;4986449;28;20799;-80
2022/08/04 01:17:24;;;;;;;3.58;2.05;;;;;;;24.55;39.90;95506.22;4953957;28;20191;-80
2022/08/04 01:20:06;;;;;;;3.83;2.00;;;;;;;24.48;39.69;95504.75;4968883;28;20266;-79
2022/08/04 01:22:31;;;;;;;2.22;1.73;;;;;;;24.43;39.98;95494.84;4973392;28;20176;-79
2022/08/04 01:25:35;;;;;;;2.95;1.70;;;;;;;24.43;40.20;95502.00;4976925;28;20194;-79
2022/08/04 01:28:39;;;;;;;1.88;1.77;;;;;;;24.33;40.33;95505.25;4972665;28;20215;-79
2022/08/04 01:31:20;;;;;;;1.92;1.75;;;;;;;24.37;40.28;95494.97;4983138;28;20200;-80
2022/08/04 01:33:47;;;;;;;3.85;1.80;;;;;;;24.35;40.40;95497.84;4965836;28;20691;-79
2022/08/04 01:36:13;;;;;;;2.45;1.90;;;;;;;24.27;40.79;95503.50;4974615;28;20191;-79
2022/08/04 01:38:39;;;;;;;3.15;2.00;;;;;;;24.34;40.31;95504.22;4966631;28;20188;-80
2022/08/04 01:41:06;;;;;;;2.92;2.08;;;;;;;24.35;40.29;95503.16;4974410;28;20199;-79
2022/08/04 01:43:34;;;;;;;2.10;2.00;;;;;;;24.33;40.57;95494.63;4967210;28;20216;-79
2022/08/04 01:46:01;;;;;;;3.95;2.03;;;;;;;24.38;40.05;95493.91;4967523;28;20218;-78
2022/08/04 01:48:27;;;;;;;2.45;2.25;;;;;;;24.34;40.12;95498.91;4955252;28;20683;-79
2022/08/04 01:50:56;;;;;;;2.40;1.95;;;;;;;24.39;40.09;95488.41;4976762;28;20184;-79
2022/08/04 01:53:23;;;;;;;2.42;2.22;;;;;;;24.34;40.52;95490.94;4949980;28;20208;-80
2022/08/04 01:55:51;;;;;;;2.30;1.77;;;;;;;24.37;40.20;95489.66;4953720;28;20202;-79
2022/08/04 01:58:18;;;;;;;2.30;2.10;;;;;;;24.36;40.22;95491.50;4972841;28;20198;-79
2022/08/04 02:01:01;;;;;;;3.13;2.13;;;;;;;24.40;40.08;95487.34;4969996;28;20251;-80
2022/08/04 02:03:26;;;;;;;3.78;1.92;;;;;;;24.41;39.88;95493.47;4986465;28;20211;-79
2022/08/04 02:05:58;;;;;;;2.67;1.67;;;;;;;24.37;40.11;95490.47;4965793;28;20591;-79
2022/08/04 02:08:33;;;;;;;1.88;1.70;;;;;;;24.30;40.06;95477.31;4950191;28;20188;-80
2022/08/04 02:11:15;;;;;;;2.17;1.98;;;;;;;24.33;39.81;95489.34;4986475;28;20262;-79
2022/08/04 02:14:39;;;;;;;3.78;2.08;;;;;;;24.34;39.99;95482.97;4955025;28;20591;-79
2022/08/04 02:17:28;;;;;;;5.40;2.10;;;;;;;24.21;39.93;95480.56;4972995;28;20256;-80
2022/08/04 02:20:08;;;;;;;2.95;2.03;;;;;;;24.24;39.86;95485.41;4983846;28;20192;-80
2022/08/04 02:22:40;;;;;;;2.92;2.10;;;;;;;24.19;39.57;95482.63;4984042;28;20726;-79
2022/08/04 02:25:07;;;;;;;2.03;1.70;;;;;;;24.26;39.41;95483.31;4974325;28;20184;-80
2022/08/04 02:28:17;;;;;;;2.38;1.73;;;;;;;24.28;39.27;95487.34;4967240;28;20199;-79
2022/08/04 02:30:50;;;;;;;2.00;1.75;;;;;;;24.17;39.57;95482.88;4880033;29;20232;-79
2022/08/04 02:33:30;;;;;;;1.73;1.63;;;;;;;24.17;39.18;95474.91;4880344;29;20207;-80
2022/08/04 02:35:58;;;;;;;1.88;1.77;;;;;;;24.15;39.38;95481.50;4878554;29;20211;-80
2022/08/04 02:38:29;;;;;;;1.95;1.77;;;;;;;24.15;39.58;95481.50;4879327;29;20191;-79
2022/08/04 02:40:57;;;;;;;2.85;1.80;;;;;;;24.14;39.50;95469.28;4895817;29;20199;-79
2022/08/04 02:43:23;;;;;;;1.80;1.70;;;;;;;24.10;39.36;95478.72;4879532;29;20746;-79
2022/08/04 02:45:51;;;;;;;3.20;1.60;;;;;;;24.12;39.27;95471.34;4879275;29;20255;-80
2022/08/04 02:48:17;;;;;;;2.13;1.90;;;;;;;24.04;39.28;95479.69;4879897;29;20688;-80
2022/08/04 02:50:43;;;;;;;1.65;1.55;;;;;;;24.11;39.07;95480.34;4880642;29;20263;-81
2022/08/04 02:53:12;;;;;;;1.63;1.52;;;;;;;24.04;39.33;95475.19;4880008;29;20217;-79
2022/08/04 02:55:38;;;;;;;2.70;1.70;;;;;;;24.06;39.36;95469.63;4879636;29;21148;-80
2022/08/04 02:58:04;;;;;;;2.63;1.65;;;;;;;24.06;39.57;95473.09;4880148;29;20210;-79
2022/08/04 03:00:29;;;;;;;1.60;1.50;;;;;;;23.95;39.37;95472.09;4872967;29;20206;-80
2022/08/04 03:03:30;;;;;;;2.97;1.70;;;;;;;24.00;39.53;95472.16;4879763;29;20218;-78
2022/08/04 03:06:10;;;;;;;1.85;1.60;;;;;;;23.98;39.50;95474.25;4895130;29;20382;-81
2022/08/04 03:08:57;;;;;;;2.08;1.83;;;;;;;23.90;39.55;95474.63;4990159;28;20212;-80
2022/08/04 03:11:46;;;;;;;3.83;1.90;;;;;;;23.88;39.81;95474.03;4986930;28;20196;-80
2022/08/04 03:14:50;;;;;;;3.50;1.77;;;;;;;23.90;39.54;95473.81;4988167;28;20211;-80
2022/08/04 03:17:40;;;;;;;2.20;1.70;;;;;;;23.89;39.68;95472.19;4978564;28;20189;-79
2022/08/04 03:20:42;;;;;;;2.05;1.85;;;;;;;23.80;39.70;95469.09;4960711;28;20244;-79
2022/08/04 03:23:34;;;;;;;3.20;1.60;;;;;;;23.76;39.75;95462.63;4986021;28;20216;-80
2022/08/04 03:26:14;;;;;;;1.52;1.42;;;;;;;23.83;39.73;95465.97;4980356;28;20227;-80
2022/08/04 03:28:59;;;;;;;1.70;1.60;;;;;;;23.81;39.51;95470.69;4985423;28;20255;-80
2022/08/04 03:32:10;;;;;;;4.25;1.65;;;;;;;23.83;39.65;95467.81;4975300;28;20195;-79
2022/08/04 03:35:02;;;;;;;1.70;1.42;;;;;;;23.79;39.53;95475.44;4976998;28;20210;-79
2022/08/04 03:38:11;;;;;;;1.83;1.67;;;;;;;23.82;39.50;95472.31;4954044;28;20193;-80
2022/08/04 03:41:02;;;;;;;2.40;1.73;;;;;;;23.85;39.30;95474.50;4969037;28;20279;-80
2022/08/04 03:43:45;;;;;;;3.83;1.80;;;;;;;23.77;39.66;95468.75;4972088;28;20208;-79
2022/08/04 03:46:39;;;;;;;2.08;1.70;;;;;;;23.81;39.58;95470.69;4988979;28;20565;-80
2022/08/04 03:49:29;;;;;;;2.83;2.08;;;;;;;23.83;39.62;95473.13;4975957;28;20195;-80
2022/08/04 03:55:40;;;;;;;1.75;1.60;;;;;;;23.71;39.91;95465.97;4988827;28;20567;-79
2022/08/04 03:58:31;;;;;;;1.92;1.80;;;;;;;23.67;40.29;95464.00;4977272;28;20187;-80
2022/08/04 04:01:16;;;;;;;2.33;1.60;;;;;;;23.59;40.21;95466.97;4971116;28;20184;-79
2022/08/04 04:04:19;;;;;;;1.70;1.55;;;;;;;23.52;40.45;95461.81;4967643;28;20239;-78
2022/08/04 04:06:55;;;;;;;3.53;1.83;;;;;;;23.53;40.43;95470.56;4988381;28;20191;-80
2022/08/04 04:09:46;;;;;;;2.05;1.92;;;;;;;23.53;40.36;95471.38;4968684;28;20192;-80
2022/08/04 04:12:48;;;;;;;2.33;2.05;;;;;;;23.53;40.46;95470.56;4954175;28;20207;-80
2022/08/04 04:15:32;;;;;;;1.88;1.58;;;;;;;23.50;40.34;95468.34;5002196;28;20179;-77
2022/08/04 04:18:29;;;;;;;3.42;1.80;;;;;;;23.48;40.44;95467.78;4992412;28;20269;-79
2022/08/04 04:21:00;;;;;;;1.92;1.73;;;;;;;23.54;40.35;95472.19;5003000;28;20164;-78
2022/08/04 04:23:31;;;;;;;2.05;1.95;;;;;;;23.62;40.18;95471.88;4986523;28;20204;-78
2022/08/04 04:26:21;;;;;;;3.13;1.80;;;;;;;23.65;40.04;95471.41;4975501;28;20410;-79
2022/08/04 04:29:12;;;;;;;4.82;1.98;;;;;;;23.72;40.02;95472.09;5000250;28;20212;-78
2022/08/04 04:32:13;;;;;;;2.47;1.40;;;;;;;23.80;39.72;95473.59;5001211;28;20191;-77
2022/08/04 04:34:52;;;;;;;1.75;1.65;;;;;;;23.88;39.15;95470.59;4973863;28;20220;-78
2022/08/04 04:37:49;;;;;;;2.92;1.60;;;;;;;24.01;39.12;95472.97;4960781;28;20215;-80
2022/08/04 04:40:23;;;;;;;1.80;1.70;;;;;;;24.00;39.16;95474.81;4977095;28;20180;-77
2022/08/04 04:43:00;;;;;;;1.65;1.55;;;;;;;24.11;38.93;95470.53;4985543;28;20210;-78
2022/08/04 04:45:38;;;;;;;2.70;1.50;;;;;;;24.17;38.98;95474.91;4986541;28;20257;-79
2022/08/04 04:48:27;;;;;;;1.85;1.63;;;;;;;24.36;38.60;95477.44;4976537;28;20196;-78
2022/08/04 04:51:26;;;;;;;3.10;1.77;;;;;;;24.34;38.81;95472.38;4985720;28;20238;-78
2022/08/04 04:54:05;;;;;;;2.40;1.65;;;;;;;24.40;38.54;95483.91;4966464;28;20302;-79
2022/08/04 04:56:44;;;;;;;2.40;1.50;;;;;;;25.64;36.60;95487.41;4972803;28;20184;-78
2022/08/04 04:59:14;;;;;;;2.50;1.83;;;;;;;27.65;32.71;95485.72;4945143;28;20195;-78
2022/08/04 05:02:13;;;;;;;2.00;1.80;;;;;;;29.97;29.29;95490.44;4950286;28;20194;-79
2022/08/04 05:04:55;;;;;;;2.00;1.70;;;;;;;31.58;27.05;95483.75;4969688;28;20216;-79
2022/08/04 05:07:49;;;;;;;1.50;1.40;;;;;;;32.47;25.31;95489.59;4976385;28;20289;-78
2022/08/04 05:10:26;;;;;;;2.00;1.70;;;;;;;33.77;23.76;95494.50;4956627;28;20557;-79
2022/08/04 05:13:11;;;;;;;2.75;1.85;;;;;;;33.89;23.38;95499.44;4985500;28;20210;-79
2022/08/04 05:15:41;;;;;;;2.30;1.60;;;;;;;34.43;22.74;95497.91;4970682;28;20191;-79
2022/08/04 05:18:08;;;;;;;1.92;1.73;;;;;;;35.14;22.01;95491.84;4976743;28;20194;-79
2022/08/04 05:20:37;;;;;;;2.28;1.88;;;;;;;34.75;22.51;95497.00;4951506;28;20193;-80
2022/08/04 05:23:10;;;;;;;1.70;1.50;;;;;;;34.91;22.13;95499.09;4976538;28;20246;-79
2022/08/04 05:25:43;;;;;;;1.95;1.85;;;;;;;35.80;21.46;95503.00;4966294;28;20644;-79
2022/08/04 05:28:15;;;;;;;2.10;1.90;;;;;;;35.38;21.09;95496.94;4954034;28;20682;-79
2022/08/04 05:30:47;;;;;;;4.40;1.85;;;;;;;34.89;22.03;95503.19;4967558;28;20200;-79
2022/08/04 05:33:18;;;;;;;1.95;1.50;;;;;;;34.84;22.33;95504.06;4952795;28;20286;-79
2022/08/04 05:35:48;;;;;;;2.85;1.70;;;;;;;34.29;22.42;95506.00;4977759;28;20187;-79
2022/08/04 05:38:19;;;;;;;3.67;1.83;;;;;;;34.64;21.95;95496.44;4985849;28;20192;-78
2022/08/04 05:40:45;;;;;;;2.92;1.90;;;;;;;33.94;22.36;95500.16;4968188;28;20184;-79
2022/08/04 05:43:12;;;;;;;1.65;1.52;;;;;;;33.94;22.42;95496.66;4968858;28;20306;-80
2022/08/04 05:45:37;;;;;;;1.45;1.35;;;;;;;33.07;23.90;95489.94;4986904;28;20591;-80
2022/08/04 05:48:06;;;;;;;2.53;1.90;;;;;;;33.35;23.65;95490.03;4967325;28;20210;-79
2022/08/04 05:50:31;;;;;;;1.75;1.65;;;;;;;33.84;23.63;95496.78;4952518;28;20180;-80
2022/08/04 05:52:58;;;;;;;4.03;1.90;;;;;;;34.10;22.94;95500.66;4978013;28;20251;-79
2022/08/04 05:55:27;;;;;;;2.30;1.80;;;;;;;34.78;22.59;95499.09;4977644;28;20195;-80
2022/08/04 05:57:53;;;;;;;4.25;1.90;;;;;;;35.54;21.07;95502.03;4979643;28;20206;-80
2022/08/04 06:00:18;;;;;;;4.57;1.63;;;;;;;35.58;21.10;95503.78;4968108;28;20212;-80
2022/08/04 06:02:46;;;;;;;6.43;1.55;;;;;;;35.74;20.86;95504.22;4974806;28;20241;-79
2022/08/04 06:05:13;;;;;;;2.05;1.80;;;;;;;36.35;20.06;95507.25;4975991;28;20187;-79
2022/08/04 06:07:39;;;;;;;2.55;1.83;;;;;;;37.23;19.26;95510.69;4977785;28;20366;-81
2022/08/04 06:10:05;;;;;;;2.10;1.90;;;;;;;37.74;18.64;95513.72;4967507;28;20633;-80
2022/08/04 06:12:41;;;;;;;1.98;1.40;;;;;;;38.25;18.51;95515.53;4968103;28;20278;-80
2022/08/04 06:15:08;;;;;;;1.88;1.77;;;;;;;38.90;17.60;95518.94;4950175;28;20266;-79
2022/08/04 06:17:38;;;;;;;1.50;1.40;;;;;;;39.33;17.15;95518.66;4977438;28;20199;-80
2022/08/04 06:20:05;;;;;;;1.85;1.75;;;;;;;37.94;18.55;95513.84;4978248;28;20190;-80
2022/08/04 06:22:31;;;;;;;1.90;1.70;;;;;;;37.39;19.37;95516.47;4968892;28;20554;-79
2022/08/04 06:24:57;;;;;;;1.73;1.63;;;;;;;38.05;18.28;95518.94;4969243;28;20257;-79
2022/08/04 06:27:23;;;;;;;2.42;1.70;;;;;;;37.52;19.18;95525.50;4978883;28;20301;-78
2022/08/04 06:29:49;;;;;;;3.03;1.80;;;;;;;39.24;18.33;95531.50;4969753;28;20183;-79
2022/08/04 06:32:55;;;;;;;1.92;1.83;;;;;;;39.33;17.41;95526.81;4978554;28;20183;-79
2022/08/04 06:35:08;;;;;;;2.90;1.80;;;;;;;39.19;16.97;95524.34;4972419;28;20195;-79
2022/08/04 06:37:36;;;;;;;2.03;1.80;;;;;;;38.83;18.22;95529.50;4968851;28;20652;-78
2022/08/04 06:40:02;;;;;;;2.60;1.67;;;;;;;40.08;16.68;95524.06;4971740;28;20184;-78
2022/08/04 06:42:28;;;;;;;1.75;1.65;;;;;;;41.99;14.88;95524.91;4992727;28;20189;-80
2022/08/04 06:44:56;;;;;;;2.33;1.80;;;;;;;41.68;15.46;95536.47;4979298;28;20207;-79
2022/08/04 06:47:21;;;;;;;2.03;1.80;;;;;;;41.02;15.68;95530.28;4971923;28;20215;-79
2022/08/04 06:49:48;;;;;;;2.00;1.90;;;;;;;40.69;16.09;95530.38;4967651;28;20277;-79
2022/08/04 06:52:16;;;;;;;2.20;1.98;;;;;;;42.99;13.87;95533.66;4990743;28;20251;-79
2022/08/04 06:54:46;;;;;;;2.08;1.98;;;;;;;41.73;14.50;95539.78;4972242;28;20199;-78
2022/08/04 06:57:15;;;;;;;3.25;1.80;;;;;;;40.49;16.18;95534.03;4972776;28;20184;-79
2022/08/04 06:59:45;;;;;;;2.60;1.73;;;;;;;41.75;15.39;95542.16;4957725;28;20286;-80
2022/08/04 07:02:14;;;;;;;3.58;2.00;;;;;;;41.21;15.62;95545.22;4974634;28;20809;-78
2022/08/04 07:04:41;;;;;;;4.30;2.90;;;;;;;40.73;16.63;95539.47;4972890;28;20235;-77
2022/08/04 07:07:06;;;;;;;2.47;2.08;;;;;;;42.08;15.40;95545.41;4956247;28;20211;-78
2022/08/04 07:09:32;;;;;;;4.47;2.20;;;;;;;40.59;16.47;95536.28;4975026;28;20643;-79
2022/08/04 07:11:58;;;;;;;3.40;2.20;;;;;;;42.39;14.60;95547.38;4973794;28;20192;-79
2022/08/04 07:14:25;;;;;;;3.25;2.22;;;;;;;40.09;16.72;95540.03;4972159;28;20200;-78
2022/08/04 07:16:51;;;;;;;2.60;2.40;;;;;;;40.34;17.28;95542.81;4979710;28;20559;-78
2022/08/04 07:19:17;;;;;;;1.80;1.70;;;;;;;40.71;16.18;95539.00;4973051;28;20190;-79
2022/08/04 07:21:42;;;;;;;2.33;2.13;;;;;;;41.89;15.02;95541.78;4975402;28;20281;-79
2022/08/04 07:24:08;;;;;;;2.25;2.05;;;;;;;40.60;15.82;95531.63;4991690;28;20217;-78
2022/08/04 07:26:33;;;;;;;2.97;2.33;;;;;;;39.27;18.08;95536.25;4982224;28;20639;-77
2022/08/04 07:28:59;;;;;;;2.85;2.55;;;;;;;39.32;18.45;95533.38;4988774;28;20227;-79
2022/08/04 07:31:25;;;;;;;2.17;2.08;;;;;;;38.18;19.28;95524.16;4990698;28;20187;-79
2022/08/04 07:33:51;;;;;;;2.67;2.03;;;;;;;38.37;18.85;95528.44;4978857;28;20216;-79
2022/08/04 07:36:16;;;;;;;2.00;1.90;;;;;;;38.62;18.55;95532.16;4979948;28;20187;-79
2022/08/04 07:38:42;;;;;;;1.95;1.75;;;;;;;38.50;18.50;95530.09;4965002;28;20389;-79
2022/08/04 07:41:07;;;;;;;2.80;2.15;;;;;;;37.76;18.34;95525.03;4982660;28;20255;-80
2022/08/04 07:43:35;;;;;;;2.90;2.03;;;;;;;37.42;19.38;95530.16;4972762;28;20320;-80
2022/08/04 07:46:00;;;;;;;2.50;2.30;;;;;;;37.15;19.27;95525.81;4981080;28;20191;-79
2022/08/04 07:48:26;;;;;;;3.33;2.00;;;;;;;37.39;19.29;95524.59;4971905;28;20196;-79
2022/08/04 07:50:51;;;;;;;4.43;2.08;;;;;;;36.15;20.20;95516.72;4971093;28;20338;-79
2022/08/04 07:53:17;;;;;;;3.13;1.80;;;;;;;35.79;20.64;95514.13;4973224;28;20207;-79
2022/08/04 07:55:45;;;;;;;2.40;1.98;;;;;;;35.79;20.49;95527.63;4972768;28;20198;-79
2022/08/04 07:58:10;;;;;;;2.17;1.98;;;;;;;36.45;20.64;95534.03;4972626;28;20237;-79
2022/08/04 08:00:35;;;;;;;2.88;2.00;;;;;;;34.79;21.94;95531.16;4970566;28;20188;-78
2022/08/04 08:03:01;;;;;;;2.20;2.00;;;;;;;34.77;23.01;95529.84;4973461;28;20302;-78
2022/08/04 08:05:27;;;;;;;4.07;2.33;;;;;;;34.31;23.93;95531.53;4971444;28;20184;-80
2022/08/04 08:07:54;;;;;;;2.75;2.05;;;;;;;33.74;24.23;95522.00;4955077;28;20568;-79
2022/08/04 08:10:20;;;;;;;2.75;2.17;;;;;;;33.28;24.76;95522.69;4990308;28;20184;-80
2022/08/04 08:12:46;;;;;;;3.58;2.25;;;;;;;33.17;25.11;95523.94;4972022;28;20287;-79
2022/08/04 08:15:11;;;;;;;2.88;2.05;;;;;;;32.55;25.68;95520.44;4970040;28;20588;-79
2022/08/04 08:17:37;;;;;;;2.17;1.98;;;;;;;32.71;25.78;95519.16;4973541;28;20210;-79
2022/08/04 08:20:05;;;;;;;3.50;2.25;;;;;;;32.92;25.03;95515.13;4988981;28;20200;-79
2022/08/04 08:22:30;;;;;;;2.30;2.10;;;;;;;32.95;25.00;95517.25;4978738;28;20660;-78
2022/08/04 08:24:55;;;;;;;2.55;2.10;;;;;;;33.08;25.43;95512.25;4963755;28;20222;-80
2022/08/04 08:27:24;;;;;;;3.95;2.13;;;;;;;33.23;24.99;95520.09;4979049;28;20220;-79
2022/08/04 08:29:49;;;;;;;2.38;2.20;;;;;;;32.95;25.09;95519.13;4970495;28;20180;-79
2022/08/04 08:32:15;;;;;;;3.33;2.45;;;;;;;32.58;25.03;95515.28;4972878;28;20215;-80
2022/08/04 08:34:41;;;;;;;2.67;2.47;;;;;;;32.70;24.88;95517.56;4956483;28;20700;-78
2022/08/04 08:37:12;;;;;;;2.90;2.15;;;;;;;33.06;24.41;95514.44;4954773;28;20188;-79
2022/08/04 08:39:41;;;;;;;2.50;1.92;;;;;;;33.43;24.82;95519.03;4957874;28;20561;-79
2022/08/04 08:42:25;;;;;;;2.55;2.13;;;;;;;32.62;25.55;95521.69;4970041;28;20255;-78
2022/08/04 08:45:09;;;;;;;4.38;2.50;;;;;;;32.45;25.64;95512.50;4977850;28;20200;-78
2022/08/04 08:47:51;;;;;;;4.30;2.40;;;;;;;32.20;25.47;95514.34;4972211;28;20199;-78
2022/08/04 08:50:47;;;;;;;3.05;2.28;;;;;;;32.09;25.87;95516.34;4989762;28;20239;-78
2022/08/04 08:53:19;;;;;;;4.78;2.50;;;;;;;32.61;25.69;95527.34;4980229;28;20572;-80
2022/08/04 08:56:16;;;;;;;2.63;2.28;;;;;;;32.24;26.12;95518.03;4988201;28;20234;-80
2022/08/04 08:58:59;;;;;;;2.78;2.20;;;;;;;32.21;26.34;95526.69;4971390;28;20195;-78
2022/08/04 09:01:44;;;;;;;3.85;2.55;;;;;;;31.87;26.90;95521.38;4977548;28;20196;-79
2022/08/04 09:04:28;;;;;;;4.03;2.60;;;;;;;31.74;27.15;95519.31;4988370;28;20290;-78
2022/08/04 09:07:25;;;;;;;2.50;2.30;;;;;;;32.31;25.80;95526.59;4989400;28;20197;-78
2022/08/04 09:10:08;;;;;;;2.75;2.42;;;;;;;32.18;26.59;95524.56;4976784;28;20191;-78
2022/08/04 09:13:01;;;;;;;2.80;2.55;;;;;;;32.52;26.10;95526.38;4971294;28;20186;-77
2022/08/04 09:15:48;;;;;;;2.55;2.35;;;;;;;32.18;25.79;95529.16;4971714;28;20188;-79
2022/08/04 09:18:21;;;;;;;4.97;2.35;;;;;;;31.94;26.84;95531.78;4953624;28;20212;-79
2022/08/04 09:20:49;;;;;;;5.32;2.55;;;;;;;32.32;26.40;95528.19;4962883;28;20572;-78
2022/08/04 09:23:25;;;;;;;4.95;2.40;;;;;;;32.73;26.19;95530.41;4968829;28;20659;-79
2022/08/04 09:26:08;;;;;;;5.43;2.22;;;;;;;32.72;26.32;95530.72;4967614;28;21003;-79
2022/08/04 09:28:50;;;;;;;3.53;2.35;;;;;;;32.87;25.97;95533.25;4952727;28;20200;-79
2022/08/04 09:31:35;;;;;;;3.28;2.45;;;;;;;32.82;26.04;95536.75;4937725;28;20691;-78
2022/08/04 09:34:06;;;;;;;3.38;2.42;;;;;;;33.03;25.20;95539.19;4992010;28;20291;-77
2022/08/04 09:36:38;;;;;;;6.10;2.28;;;;;;;32.79;26.01;95537.34;4969912;28;20191;-79
2022/08/04 09:39:08;;;;;;;7.90;2.33;;;;;;;33.20;25.74;95537.59;4970032;28;20255;-78
2022/08/04 09:41:59;;;;;;;2.85;2.42;;;;;;;33.24;25.28;95533.25;4970561;28;20195;-80
2022/08/04 09:44:35;;;;;;;5.70;2.65;;;;;;;32.97;25.47;95533.09;4988504;28;20204;-79
2022/08/04 09:47:15;;;;;;;2.90;2.70;;;;;;;33.18;26.04;95539.00;4976317;28;20196;-78
2022/08/04 09:49:49;;;;;;;4.38;2.40;;;;;;;33.49;25.42;95539.38;4958569;28;20780;-79
2022/08/04 09:52:53;;;;;;;3.13;2.63;;;;;;;33.06;25.50;95544.81;4962824;28;20274;-78
2022/08/04 09:55:45;;;;;;;6.32;2.95;;;;;;;32.85;25.71;95536.19;4969006;28;20211;-77
2022/08/04 09:58:36;;;;;;;3.20;2.30;;;;;;;32.26;26.17;95539.28;4954630;28;20218;-79
2022/08/04 10:01:08;;;;;;;3.53;2.50;;;;;;;32.23;26.91;95529.06;4987386;28;20246;-78
2022/08/04 10:03:47;;;;;;;2.60;2.40;;;;;;;32.46;26.61;95532.91;4976377;28;20226;-78
2022/08/04 10:06:34;;;;;;;3.25;2.95;;;;;;;32.77;26.15;95528.75;4970735;28;20578;-79
2022/08/04 10:09:15;;;;;;;2.97;2.42;;;;;;;32.86;25.49;95532.41;4987109;28;20179;-78
2022/08/04 10:11:53;;;;;;;2.90;2.50;;;;;;;33.02;25.19;95527.63;4981644;28;20199;-78
2022/08/04 10:14:40;;;;;;;3.25;2.80;;;;;;;33.09;25.49;95530.78;4986078;28;20203;-79
2022/08/04 10:17:42;;;;;;;3.03;2.78;;;;;;;33.09;25.64;95535.38;4967979;28;20184;-78
2022/08/04 10:20:42;;;;;;;4.55;2.45;;;;;;;32.69;25.70;95522.16;4988550;28;20190;-79
2022/08/04 10:23:24;;;;;;;4.68;2.60;;;;;;;32.55;25.75;95523.13;4959736;28;20208;-78
2022/08/04 10:26:24;;;;;;;3.40;2.40;;;;;;;32.59;26.21;95516.88;4977693;28;20251;-80
2022/08/04 10:29:07;;;;;;;3.03;2.72;;;;;;;32.48;25.24;95522.66;4988190;28;20323;-79
2022/08/04 10:31:35;;;;;;;2.88;2.58;;;;;;;32.44;26.16;95518.97;4951340;28;20180;-79
2022/08/04 10:34:11;;;;;;;2.85;2.13;;;;;;;32.70;25.88;95522.94;4970411;28;20583;-79
2022/08/04 10:37:03;;;;;;;2.63;2.40;;;;;;;32.74;25.29;95518.56;4962936;28;20184;-80
2022/08/04 10:40:35;;;;;;;3.80;2.47;;;;;;;32.97;25.24;95517.78;4969137;28;20200;-80
2022/08/04 10:42:34;;;;;;;5.43;2.50;;;;;;;32.55;26.12;95507.00;4973459;28;20195;-79
2022/08/04 10:45:11;;;;;;;2.58;2.38;;;;;;;32.96;25.46;95512.69;4987192;28;20726;-80
2022/08/04 10:47:44;;;;;;;3.17;2.20;;;;;;;33.27;24.51;95506.84;4962332;28;20214;-78
2022/08/04 10:50:10;;;;;;;2.20;2.00;;;;;;;33.60;23.81;95511.22;4977072;28;20675;-79
2022/08/04 10:52:47;;;;;;;2.75;2.28;;;;;;;33.77;23.46;95503.38;4968008;28;20184;-79
2022/08/04 10:55:21;;;;;;;4.47;2.60;;;;;;;33.97;23.58;95513.03;4968400;28;20275;-79
2022/08/04 10:58:01;;;;;;;6.95;2.50;;;;;;;34.07;23.30;95503.97;4977802;28;20311;-79
2022/08/04 11:00:28;;;;;;;4.03;2.17;;;;;;;34.28;22.59;95505.19;4971198;28;20742;-79
2022/08/04 11:03:02;;;;;;;3.78;2.03;;;;;;;34.50;22.45;95519.88;4982546;28;20203;-76
2022/08/04 11:05:53;;;;;;;2.70;2.20;;;;;;;34.60;22.43;95509.69;4999286;28;20182;-78
2022/08/04 11:08:41;;;;;;;3.17;2.30;;;;;;;34.73;22.41;95515.41;4988344;28;20164;-77
2022/08/04 11:11:31;;;;;;;2.92;2.20;;;;;;;34.69;22.07;95511.69;4995804;28;20269;-77
2022/08/04 11:14:05;;;;;;;8.02;2.30;;;;;;;34.55;22.33;95515.22;4950319;28;20208;-78
2022/08/04 11:16:44;;;;;;;2.60;2.13;;;;;;;34.74;22.93;95514.28;4980612;28;20188;-79
2022/08/04 11:19:31;;;;;;;2.70;2.00;;;;;;;34.76;22.43;95515.56;4982638;28;20214;-78
2022/08/04 11:22:13;;;;;;;3.13;2.92;;;;;;;34.91;22.08;95519.88;5002177;28;20255;-78
2022/08/04 11:24:50;;;;;;;3.63;2.60;;;;;;;34.81;21.87;95512.78;4974173;28;20220;-78
2022/08/04 11:27:24;;;;;;;2.70;2.50;;;;;;;34.52;23.57;95521.19;4986166;28;20274;-79
2022/08/04 11:30:00;;;;;;;5.15;2.60;;;;;;;34.66;23.02;95521.19;4984674;28;20230;-78
2022/08/04 11:32:35;;;;;;;3.88;2.55;;;;;;;34.54;23.24;95515.47;4967824;28;20188;-78
2022/08/04 11:35:01;;;;;;;2.72;2.40;;;;;;;34.38;23.61;95522.25;4952568;28;20247;-77
2022/08/04 11:37:49;;;;;;;3.50;2.33;;;;;;;34.84;23.25;95516.78;4970754;28;20183;-78
2022/08/04 11:40:28;;;;;;;3.03;2.53;;;;;;;34.54;23.08;95505.50;4964630;28;20192;-80
2022/08/04 11:43:00;;;;;;;3.30;2.65;;;;;;;35.06;22.97;95513.34;4974472;28;20203;-79
2022/08/04 11:45:50;;;;;;;2.63;2.33;;;;;;;35.02;22.07;95521.25;4955603;28;20208;-79
2022/08/04 11:48:20;;;;;;;2.92;2.65;;;;;;;35.14;21.99;95508.03;4964645;28;20663;-80
2022/08/04 11:50:52;;;;;;;3.28;2.53;;;;;;;35.43;21.61;95512.28;4972215;28;20256;-80
2022/08/04 11:53:25;;;;;;;4.15;2.50;;;;;;;34.53;22.33;95516.59;4972702;28;20195;-80
2022/08/04 11:55:57;;;;;;;2.80;2.60;;;;;;;34.91;21.98;95503.72;4974132;28;20187;-79
2022/08/04 11:58:22;;;;;;;4.50;2.40;;;;;;;35.38;21.59;95501.56;4972897;28;20226;-79
2022/08/04 12:01:20;;;;;;;2.53;2.33;;;;;;;34.81;22.04;95509.25;4969458;28;20214;-79
2022/08/04 12:04:16;;;;;;;6.28;2.25;;;;;;;34.75;21.83;95516.69;4966141;28;20324;-80
2022/08/04 12:06:48;;;;;;;2.20;2.10;;;;;;;34.83;22.21;95504.38;4974223;28;20192;-80
2022/08/04 12:09:38;;;;;;;5.18;3.05;;;;;;;34.27;22.58;95508.16;4996169;28;20656;-78
2022/08/04 12:12:13;;;;;;;3.78;2.20;;;;;;;34.45;22.71;95506.50;4991068;28;20200;-79
2022/08/04 12:14:50;;;;;;;2.50;2.30;;;;;;;34.09;22.80;95507.94;4976924;28;20203;-80
2022/08/04 12:17:23;;;;;;;2.63;2.42;;;;;;;34.37;22.72;95502.59;4994556;28;20785;-78
2022/08/04 12:19:57;;;;;;;4.22;2.45;;;;;;;34.47;22.64;95502.41;4994333;28;20183;-79
2022/08/04 12:22:25;;;;;;;2.28;2.08;;;;;;;34.55;22.75;95501.72;4959054;28;20283;-78